Time;durP1;ratioP1;P1;durP2;ratioP2;P2;SDS_P1;SDS_P2;PMS_P1;PMS_P2;Temp;Humidity;BMP_temperature;BMP_pressure;BME280_temperature;BME280_humidity;BME280_pressure;Samples;Min_cycle;Max_cycle;Signal;HPM_P1;HPM_P2
2023/02/10 00:00:20;;;;;;;23.27;12.80;;;-1.90;94.00;;;;;;4990567;28;20884;-87
2023/02/10 00:02:47;;;;;;;21.33;12.30;;;-1.90;94.30;;;;;;4988434;28;20727;-90
2023/02/10 00:05:15;;;;;;;20.53;12.27;;;-1.90;94.30;;;;;;4994655;28;20217;-87
2023/02/10 00:07:42;;;;;;;22.00;12.53;;;-1.90;94.30;;;;;;4985553;28;20214;-88
2023/02/10 00:10:11;;;;;;;20.97;13.00;;;-1.90;94.30;;;;;;4990553;28;20203;-87
2023/02/10 00:12:38;;;;;;;22.47;12.97;;;-1.90;94.30;;;;;;4990301;28;20216;-88
2023/02/10 00:15:06;;;;;;;20.57;11.67;;;-1.80;93.90;;;;;;4986234;28;20201;-88
2023/02/10 00:17:35;;;;;;;22.27;13.00;;;-1.70;93.70;;;;;;4965898;28;20211;-88
2023/02/10 00:20:02;;;;;;;20.20;12.40;;;-1.70;93.70;;;;;;4985622;28;20211;-87
2023/02/10 00:22:29;;;;;;;21.07;12.60;;;-1.80;93.80;;;;;;4984294;28;20263;-89
2023/02/10 00:24:56;;;;;;;25.50;12.47;;;-1.80;94.10;;;;;;4988526;28;20234;-88
2023/02/10 00:27:23;;;;;;;20.07;11.97;;;-1.70;93.90;;;;;;4991073;28;20208;-87
2023/02/10 00:29:51;;;;;;;19.93;12.10;;;-1.70;93.70;;;;;;4987545;28;20232;-88
2023/02/10 00:32:18;;;;;;;22.93;11.93;;;-1.60;93.70;;;;;;4987139;28;20204;-88
2023/02/10 00:34:47;;;;;;;23.57;13.00;;;-1.60;93.70;;;;;;4984769;28;20200;-87
2023/02/10 00:37:14;;;;;;;21.27;11.87;;;-1.70;93.70;;;;;;4989195;28;20215;-87
2023/02/10 00:39:41;;;;;;;21.37;11.90;;;-1.80;93.60;;;;;;4978865;28;20217;-87
2023/02/10 00:42:08;;;;;;;21.40;11.97;;;-1.80;94.00;;;;;;4979523;28;20225;-87
2023/02/10 00:44:34;;;;;;;20.07;12.10;;;-1.80;94.30;;;;;;4983319;28;20204;-90
2023/02/10 00:47:01;;;;;;;25.00;13.00;;;-1.80;94.50;;;;;;4979161;28;20201;-90
2023/02/10 00:49:28;;;;;;;20.17;11.20;;;-1.80;94.50;;;;;;4989334;28;20202;-88
2023/02/10 00:51:57;;;;;;;22.60;12.10;;;-1.80;94.20;;;;;;4991133;28;20207;-87
2023/02/10 00:54:24;;;;;;;22.53;12.20;;;-1.70;94.10;;;;;;4986073;28;20214;-88
2023/02/10 00:56:51;;;;;;;19.20;11.47;;;-1.70;93.90;;;;;;4974439;28;20275;-87
2023/02/10 00:59:19;;;;;;;20.80;12.20;;;-1.80;94.00;;;;;;4980932;28;20215;-87
2023/02/10 01:01:46;;;;;;;19.10;11.17;;;-1.80;94.10;;;;;;4990960;28;20225;-87
2023/02/10 01:04:14;;;;;;;19.23;11.67;;;-1.80;94.20;;;;;;4996974;28;20179;-92
2023/02/10 01:06:40;;;;;;;22.20;12.20;;;-1.80;94.10;;;;;;5014606;28;20382;-92
2023/02/10 01:09:09;;;;;;;21.80;11.97;;;-1.70;93.90;;;;;;4995634;28;20204;-91
2023/02/10 01:11:35;;;;;;;20.63;12.03;;;-1.70;93.80;;;;;;5012779;28;20201;-88
2023/02/10 01:14:02;;;;;;;18.97;11.73;;;-1.80;94.00;;;;;;4988986;28;20208;-87
2023/02/10 01:16:29;;;;;;;19.73;11.33;;;-1.80;93.90;;;;;;4982192;28;20235;-87
2023/02/10 01:18:56;;;;;;;20.47;11.90;;;-1.80;94.00;;;;;;4988459;28;20215;-87
2023/02/10 01:21:23;;;;;;;17.43;11.00;;;-1.90;94.10;;;;;;4991623;28;20208;-87
2023/02/10 01:23:50;;;;;;;20.63;11.37;;;-2.00;94.50;;;;;;4985298;28;20235;-87
2023/02/10 01:26:18;;;;;;;24.43;12.03;;;-2.00;94.70;;;;;;4991150;28;20829;-88
2023/02/10 01:28:45;;;;;;;20.37;12.27;;;-1.90;94.70;;;;;;4989213;28;20223;-88
2023/02/10 01:31:14;;;;;;;16.63;11.00;;;-1.90;94.50;;;;;;4983941;28;20208;-88
2023/02/10 01:33:41;;;;;;;17.60;11.07;;;-1.90;94.40;;;;;;4988943;28;20196;-88
2023/02/10 01:36:10;;;;;;;21.53;11.93;;;-1.90;94.30;;;;;;4990462;28;20291;-88
2023/02/10 01:38:37;;;;;;;19.67;11.70;;;-1.90;94.40;;;;;;4986535;28;20199;-87
2023/02/10 01:41:06;;;;;;;17.17;10.50;;;-1.90;94.60;;;;;;4990722;28;20197;-88
2023/02/10 01:43:55;;;;;;;16.20;9.97;;;-1.80;94.30;;;;;;4989187;28;20695;-87
2023/02/10 01:46:22;;;;;;;19.83;10.60;;;-1.70;94.00;;;;;;4993684;28;20208;-87
2023/02/10 01:48:49;;;;;;;18.33;10.47;;;-1.80;93.90;;;;;;4990412;28;20210;-87
2023/02/10 01:51:18;;;;;;;17.07;10.90;;;-1.80;94.20;;;;;;4989528;28;20200;-87
2023/02/10 01:53:45;;;;;;;18.10;10.40;;;-1.90;94.10;;;;;;4992482;28;20204;-88
2023/02/10 01:56:15;;;;;;;23.80;11.10;;;-2.00;94.60;;;;;;4992833;28;20207;-88
2023/02/10 01:58:44;;;;;;;17.30;10.20;;;-2.00;94.90;;;;;;4985130;28;20235;-88
2023/02/10 02:01:11;;;;;;;20.13;10.83;;;-2.10;94.80;;;;;;4992233;28;20704;-91
2023/02/10 02:03:41;;;;;;;17.60;10.40;;;-2.10;94.80;;;;;;4985999;28;20598;-88
2023/02/10 02:06:08;;;;;;;19.90;11.57;;;-2.10;94.90;;;;;;4991698;28;20216;-88
2023/02/10 02:08:35;;;;;;;17.87;10.83;;;-2.10;95.00;;;;;;4992702;28;20263;-88
2023/02/10 02:11:13;;;;;;;18.33;11.10;;;-2.10;94.80;;;;;;4989770;28;20213;-87
2023/02/10 02:14:22;;;;;;;17.83;10.23;;;-2.00;94.50;;;;;;4991663;28;20243;-88
2023/02/10 02:17:00;;;;;;;20.20;10.70;;;-2.00;94.40;;;;;;4987340;28;20209;-87
2023/02/10 02:23:29;;;;;;;17.53;10.50;;;-2.00;94.60;;;;;;4989637;28;20769;-88
2023/02/10 02:26:22;;;;;;;18.23;9.83;;;-1.90;94.40;;;;;;4994659;28;20738;-88
2023/02/10 02:29:06;;;;;;;16.23;9.67;;;-1.90;94.20;;;;;;4983655;28;20212;-87
2023/02/10 02:31:59;;;;;;;17.07;9.27;;;-2.00;94.20;;;;;;4985568;28;20212;-87
2023/02/10 02:34:35;;;;;;;17.03;10.20;;;-2.10;94.30;;;;;;4982461;28;21357;-89
2023/02/10 02:37:06;;;;;;;18.40;10.73;;;-2.10;94.50;;;;;;4987379;28;20665;-89
2023/02/10 02:39:34;;;;;;;14.70;9.50;;;-2.00;94.40;;;;;;4989836;28;20211;-88
2023/02/10 02:42:17;;;;;;;17.03;9.87;;;-2.00;94.00;;;;;;4987238;28;20221;-87
2023/02/10 02:44:45;;;;;;;16.33;9.93;;;-2.00;93.90;;;;;;4991056;28;20199;-88
2023/02/10 02:47:28;;;;;;;17.17;9.80;;;-2.10;94.30;;;;;;4992138;28;20212;-88
2023/02/10 02:50:04;;;;;;;14.20;9.67;;;-2.00;93.90;;;;;;4991416;28;20216;-88
2023/02/10 02:52:40;;;;;;;16.77;9.63;;;-2.10;93.60;;;;;;4993474;28;20212;-88
2023/02/10 02:55:15;;;;;;;16.10;9.87;;;-2.10;94.30;;;;;;4988076;28;20234;-88
2023/02/10 02:57:48;;;;;;;17.87;9.93;;;-2.20;94.60;;;;;;4984445;28;20206;-88
2023/02/10 03:00:19;;;;;;;16.57;10.20;;;-2.10;94.40;;;;;;4991806;28;20266;-89
2023/02/10 03:02:48;;;;;;;16.47;9.73;;;-2.10;94.10;;;;;;4984226;28;20224;-89
2023/02/10 03:05:19;;;;;;;16.67;10.10;;;-2.10;94.30;;;;;;4992240;28;20660;-89
2023/02/10 03:07:45;;;;;;;15.37;9.90;;;-2.10;94.10;;;;;;4992935;28;20204;-89
2023/02/10 03:10:12;;;;;;;15.73;9.17;;;-2.00;94.00;;;;;;4984313;28;20208;-89
2023/02/10 03:12:39;;;;;;;15.17;9.90;;;-2.10;93.80;;;;;;4986568;28;20262;-86
2023/02/10 03:15:07;;;;;;;16.10;10.13;;;-2.20;94.20;;;;;;4990500;28;20231;-89
2023/02/10 03:17:34;;;;;;;16.17;9.70;;;-2.30;94.60;;;;;;4995636;28;20567;-88
2023/02/10 03:20:02;;;;;;;16.10;9.87;;;-2.30;94.70;;;;;;4992724;28;20197;-88
2023/02/10 03:22:29;;;;;;;15.67;9.93;;;-2.30;94.60;;;;;;4982657;28;20216;-88
2023/02/10 03:24:56;;;;;;;14.63;9.87;;;-2.40;94.80;;;;;;4993951;28;20220;-89
2023/02/10 03:27:23;;;;;;;15.30;9.37;;;-2.40;94.90;;;;;;4991118;28;20212;-89
2023/02/10 03:29:53;;;;;;;16.30;9.90;;;-2.50;94.90;;;;;;4987836;28;20554;-88
2023/02/10 03:32:20;;;;;;;19.27;10.80;;;-2.50;95.10;;;;;;4987726;28;20218;-88
2023/02/10 03:34:48;;;;;;;15.90;9.90;;;-2.50;94.90;;;;;;4986934;28;20204;-88
2023/02/10 03:37:16;;;;;;;21.73;10.50;;;-2.50;95.10;;;;;;4991026;28;20215;-88
2023/02/10 03:39:43;;;;;;;17.30;9.90;;;-2.60;95.40;;;;;;4991628;28;20200;-89
2023/02/10 03:42:11;;;;;;;17.77;9.67;;;-2.60;95.20;;;;;;4990849;28;20207;-88
2023/02/10 03:44:38;;;;;;;18.30;10.07;;;-2.60;95.30;;;;;;4987025;28;20283;-89
2023/02/10 03:47:05;;;;;;;15.30;9.30;;;-2.60;95.50;;;;;;4992573;28;20204;-88
2023/02/10 03:49:32;;;;;;;21.97;10.23;;;-2.60;95.60;;;;;;4990989;28;20207;-89
2023/02/10 03:51:59;;;;;;;15.30;10.20;;;-2.60;95.70;;;;;;4988737;28;20565;-88
2023/02/10 03:54:27;;;;;;;16.20;10.17;;;-2.60;95.70;;;;;;4992051;28;20212;-88
2023/02/10 03:56:54;;;;;;;15.77;9.90;;;-2.60;95.40;;;;;;4982383;28;20212;-88
2023/02/10 03:59:21;;;;;;;17.67;9.80;;;-2.50;95.30;;;;;;4991848;28;20213;-88
2023/02/10 04:01:48;;;;;;;15.73;9.70;;;-2.50;95.20;;;;;;4968229;28;20207;-88
2023/02/10 04:04:16;;;;;;;17.67;10.43;;;-2.50;95.10;;;;;;4997039;28;20592;-88
2023/02/10 04:06:43;;;;;;;14.87;9.20;;;-2.40;94.80;;;;;;4989362;28;20203;-90
2023/02/10 04:09:09;;;;;;;15.90;9.40;;;-2.30;94.50;;;;;;4983419;28;20192;-89
2023/02/10 04:11:38;;;;;;;14.60;9.07;;;-2.30;94.30;;;;;;4986552;28;20208;-88
2023/02/10 04:14:05;;;;;;;16.73;9.67;;;-2.40;94.30;;;;;;4986073;28;20201;-88
2023/02/10 04:16:33;;;;;;;17.73;9.07;;;-2.40;94.30;;;;;;4994042;28;20208;-88
2023/02/10 04:19:00;;;;;;;17.87;9.70;;;-2.50;94.40;;;;;;4993630;28;20621;-89
2023/02/10 04:21:27;;;;;;;20.30;10.30;;;-2.50;94.40;;;;;;4987803;28;20215;-88
2023/02/10 04:23:55;;;;;;;21.67;11.87;;;-2.40;94.10;;;;;;4989816;28;20234;-89
2023/02/10 04:26:24;;;;;;;15.67;10.00;;;-2.50;94.10;;;;;;4983424;28;20236;-87
2023/02/10 04:28:53;;;;;;;14.63;9.30;;;-2.50;94.10;;;;;;4986510;28;20209;-87
2023/02/10 04:31:19;;;;;;;16.43;10.13;;;-2.60;94.10;;;;;;4985623;28;20209;-88
2023/02/10 04:33:47;;;;;;;16.40;9.87;;;-2.80;94.40;;;;;;4986818;28;20230;-88
2023/02/10 04:36:14;;;;;;;18.10;9.87;;;-2.80;94.90;;;;;;4985363;28;20272;-88
2023/02/10 04:38:41;;;;;;;14.07;8.80;;;-2.90;95.10;;;;;;4990155;28;20204;-88
2023/02/10 04:41:08;;;;;;;13.30;8.57;;;-2.80;95.10;;;;;;5002254;28;20206;-87
2023/02/10 04:43:35;;;;;;;14.33;8.53;;;-2.80;94.80;;;;;;5006467;28;20228;-87
2023/02/10 04:46:03;;;;;;;14.00;8.40;;;-2.80;94.70;;;;;;5008932;28;20218;-87
2023/02/10 04:48:30;;;;;;;13.83;8.63;;;-2.90;94.90;;;;;;5001362;28;20196;-89
2023/02/10 04:50:57;;;;;;;13.37;8.57;;;-3.00;95.10;;;;;;4987628;28;20200;-89
2023/02/10 04:53:24;;;;;;;13.67;9.03;;;-3.00;95.30;;;;;;4986096;28;20204;-89
2023/02/10 04:55:51;;;;;;;16.70;8.33;;;-3.00;95.40;;;;;;4982992;28;20211;-89
2023/02/10 04:58:19;;;;;;;13.20;8.07;;;-3.00;95.50;;;;;;4972797;28;20192;-90
2023/02/10 05:00:45;;;;;;;12.83;8.30;;;-3.00;95.40;;;;;;4991950;28;20230;-89
2023/02/10 05:03:14;;;;;;;12.83;8.17;;;-2.90;95.10;;;;;;4988762;28;20582;-89
2023/02/10 05:05:41;;;;;;;14.93;8.63;;;-2.90;95.00;;;;;;4992075;28;20203;-89
2023/02/10 05:08:08;;;;;;;16.43;8.40;;;-2.90;95.20;;;;;;4991111;28;20641;-89
2023/02/10 05:10:36;;;;;;;14.07;8.37;;;-2.90;95.00;;;;;;4991404;28;20670;-93
2023/02/10 05:13:03;;;;;;;11.23;7.93;;;-2.90;95.00;;;;;;4984996;28;20208;-89
2023/02/10 05:15:30;;;;;;;16.30;8.27;;;-2.90;95.00;;;;;;4990749;28;20418;-89
2023/02/10 05:17:58;;;;;;;12.80;7.67;;;-2.90;94.80;;;;;;4961683;28;20196;-89
2023/02/10 05:20:26;;;;;;;14.33;8.00;;;-3.00;94.80;;;;;;4987013;28;20805;-89
2023/02/10 05:22:53;;;;;;;11.80;7.53;;;-3.00;95.10;;;;;;4989217;28;20219;-88
2023/02/10 05:25:20;;;;;;;14.17;8.33;;;-3.00;95.10;;;;;;4980439;28;20240;-89
2023/02/10 05:27:47;;;;;;;11.87;7.60;;;-2.90;95.00;;;;;;4982795;28;20739;-90
2023/02/10 05:30:14;;;;;;;14.97;8.00;;;-2.80;94.80;;;;;;4992207;28;20207;-89
2023/02/10 05:32:41;;;;;;;15.07;8.20;;;-2.80;94.60;;;;;;4981899;28;20195;-90
2023/02/10 05:35:09;;;;;;;15.73;7.70;;;-2.80;94.60;;;;;;4992841;28;20809;-88
2023/02/10 05:37:38;;;;;;;14.97;8.03;;;-2.80;94.50;;;;;;4976455;28;20251;-88
2023/02/10 05:40:08;;;;;;;13.70;7.90;;;-2.80;94.30;;;;;;4993700;28;20215;-89
2023/02/10 05:42:35;;;;;;;12.27;7.70;;;-2.90;94.30;;;;;;4987536;28;20233;-88
2023/02/10 05:45:02;;;;;;;13.50;7.13;;;-2.90;94.30;;;;;;4991522;28;20294;-88
2023/02/10 05:47:29;;;;;;;12.53;7.53;;;-2.80;94.10;;;;;;4992594;28;20200;-88
2023/02/10 05:53:20;;;;;;;12.87;7.60;;;-2.90;93.80;;;;;;4980592;28;20641;-87
2023/02/10 05:55:50;;;;;;;10.73;7.33;;;-3.00;94.20;;;;;;4995569;28;20295;-91
2023/02/10 05:58:17;;;;;;;13.40;8.03;;;-3.10;94.30;;;;;;4989293;28;20936;-89
2023/02/10 06:00:44;;;;;;;10.90;7.37;;;-3.10;94.40;;;;;;4990489;28;20207;-87
2023/02/10 06:03:11;;;;;;;12.43;7.23;;;-3.10;94.50;;;;;;4992970;28;20222;-87
2023/02/10 06:05:39;;;;;;;12.23;7.00;;;-3.20;94.70;;;;;;4985533;28;20204;-88
2023/02/10 06:08:06;;;;;;;12.40;7.37;;;-3.30;94.80;;;;;;4993087;28;20208;-87
2023/02/10 06:10:34;;;;;;;12.73;7.00;;;-3.30;94.80;;;;;;4991651;28;20212;-89
2023/02/10 06:13:01;;;;;;;14.43;8.17;;;-3.40;95.00;;;;;;4992787;28;20211;-89
2023/02/10 06:15:35;;;;;;;13.70;8.10;;;-3.40;95.40;;;;;;4999938;28;20203;-90
2023/02/10 06:18:02;;;;;;;12.57;7.97;;;-3.50;95.30;;;;;;4995258;28;20211;-89
2023/02/10 06:20:29;;;;;;;14.80;8.13;;;-3.50;95.50;;;;;;4973642;28;20726;-89
2023/02/10 06:22:56;;;;;;;13.70;7.77;;;-3.50;95.50;;;;;;4996951;28;20645;-89
2023/02/10 06:25:23;;;;;;;12.00;8.03;;;-3.50;95.40;;;;;;5051352;23;20237;-91
2023/02/10 06:27:52;;;;;;;13.63;7.70;;;-3.50;95.50;;;;;;5014330;28;20207;-90
2023/02/10 06:30:24;;;;;;;12.10;7.33;;;-3.50;95.40;;;;;;5026225;28;20213;-89
2023/02/10 06:32:54;;;;;;;15.40;7.37;;;-3.40;95.30;;;;;;5023167;28;20203;-93
2023/02/10 06:35:24;;;;;;;12.77;7.73;;;-3.30;95.00;;;;;;5018108;28;20199;-91
2023/02/10 06:37:52;;;;;;;14.90;7.70;;;-3.20;94.70;;;;;;5014997;28;20321;-90
2023/02/10 06:40:21;;;;;;;12.73;6.67;;;-3.20;94.50;;;;;;5013734;28;20273;-89
2023/02/10 06:43:10;;;;;;;12.07;6.60;;;-3.20;94.30;;;;;;5025682;28;20211;-88
2023/02/10 06:45:38;;;;;;;13.13;7.77;;;-3.20;94.30;;;;;;5012783;28;20191;-91
2023/02/10 06:48:06;;;;;;;10.40;7.63;;;-3.30;94.50;;;;;;5018853;28;20207;-86
2023/02/10 06:50:32;;;;;;;15.00;6.93;;;-3.30;94.70;;;;;;5017000;28;20225;-87
2023/02/10 06:52:59;;;;;;;12.47;7.30;;;-3.30;94.70;;;;;;5017424;28;20209;-87
2023/02/10 07:28:10;;;;;;;12.17;6.87;;;-2.60;93.30;;;;;;5309823;23;20234;-87
2023/02/10 07:30:38;;;;;;;11.47;7.53;;;-2.60;93.50;;;;;;4994105;28;20652;-88
2023/02/10 07:33:05;;;;;;;11.57;7.00;;;-2.60;93.50;;;;;;4989888;28;20207;-87
2023/02/10 07:35:32;;;;;;;10.57;6.40;;;-2.60;94.00;;;;;;4989146;28;20204;-88
2023/02/10 07:37:59;;;;;;;13.87;10.47;;;-2.50;93.90;;;;;;4991261;28;20245;-88
2023/02/10 07:40:28;;;;;;;10.67;6.73;;;-2.40;94.00;;;;;;4994696;28;20557;-88
2023/02/10 07:42:56;;;;;;;11.53;6.70;;;-2.20;93.60;;;;;;4990325;28;20207;-86
2023/02/10 07:45:26;;;;;;;12.63;6.43;;;-2.10;93.60;;;;;;4994632;28;20232;-88
2023/02/10 07:47:53;;;;;;;12.33;7.03;;;-2.00;93.60;;;;;;4996241;28;20208;-87
2023/02/10 07:50:20;;;;;;;17.13;7.83;;;-2.00;93.60;;;;;;4997595;28;20207;-87
2023/02/10 07:56:18;;;;;;;11.87;6.83;;;-1.40;92.90;;;;;;4997145;28;20190;-88
2023/02/10 08:02:21;;;;;;;16.13;6.40;;;-0.60;90.80;;;;;;4997278;28;20650;-86
2023/02/10 08:04:49;;;;;;;11.47;6.67;;;-0.40;90.80;;;;;;4994569;28;20236;-87
2023/02/10 08:07:15;;;;;;;14.30;6.53;;;-0.30;89.40;;;;;;4987503;28;20215;-88
2023/02/10 08:09:42;;;;;;;11.37;6.93;;;-0.20;88.30;;;;;;4996041;28;20234;-86
2023/02/10 08:12:11;;;;;;;10.17;6.33;;;0.00;85.80;;;;;;4994432;28;20184;-83
2023/02/10 08:14:38;;;;;;;12.93;6.60;;;0.00;85.80;;;;;;4988814;28;20200;-84
2023/02/10 08:17:05;;;;;;;11.77;6.87;;;-0.10;88.50;;;;;;4998327;28;20234;-84
2023/02/10 08:19:36;;;;;;;10.70;6.73;;;0.00;85.80;;;;;;4995087;28;20657;-87
2023/02/10 08:22:04;;;;;;;11.17;6.90;;;0.10;85.90;;;;;;5016744;28;20196;-93
2023/02/10 08:24:31;;;;;;;13.60;6.67;;;0.20;85.90;;;;;;5005755;28;20291;-91
2023/02/10 08:26:58;;;;;;;11.73;6.60;;;0.20;85.90;;;;;;4989869;28;20300;-86
2023/02/10 08:29:25;;;;;;;13.63;7.03;;;0.30;84.00;;;;;;4966745;28;20639;-86
2023/02/10 08:31:53;;;;;;;15.17;6.70;;;0.40;85.00;;;;;;4980270;28;20200;-87
2023/02/10 08:34:21;;;;;;;11.43;7.00;;;0.50;84.40;;;;;;4976588;28;20209;-86
2023/02/10 08:36:50;;;;;;;15.07;7.20;;;0.60;85.40;;;;;;4988396;28;20204;-87
2023/02/10 08:39:17;;;;;;;12.63;7.40;;;0.60;83.00;;;;;;4996034;28;20664;-87
2023/02/10 08:42:00;;;;;;;14.77;7.33;;;0.80;80.60;;;;;;4995526;28;20197;-87
2023/02/10 08:48:04;;;;;;;10.93;7.23;;;1.40;76.40;;;;;;4995196;28;20159;-88
2023/02/10 08:51:14;;;;;;;9.87;7.30;;;1.70;71.60;;;;;;4974949;28;20197;-88
2023/02/10 08:53:43;;;;;;;21.97;7.70;;;1.80;66.30;;;;;;4959835;28;20217;-86
2023/02/10 08:56:16;;;;;;;12.33;7.50;;;2.00;63.60;;;;;;4971401;28;20205;-86
2023/02/10 08:58:43;;;;;;;13.63;7.70;;;2.00;66.60;;;;;;4974800;28;20235;-87
2023/02/10 09:01:11;;;;;;;13.40;8.33;;;2.00;63.10;;;;;;4984861;28;20202;-87
2023/02/10 09:07:10;;;;;;;14.37;8.80;;;2.60;62.90;;;;;;4978886;28;20205;-89
2023/02/10 09:09:41;;;;;;;17.70;9.90;;;3.00;56.60;;;;;;4971004;28;20196;-88
2023/02/10 09:16:05;;;;;;;14.38;9.10;;;4.00;43.50;;;;;;4957135;29;20177;-91
2023/02/10 09:19:08;;;;;;;15.77;10.05;;;4.60;38.70;;;;;;4957527;29;20228;-90
2023/02/10 09:21:55;;;;;;;19.63;10.80;;;5.00;35.70;;;;;;4957763;29;20244;-96
2023/02/10 09:29:54;;;;;;;14.23;10.48;;;6.00;30.40;;;;;;5833209;23;20286;-89
2023/02/10 09:39:38;;;;;;;15.52;11.32;;;8.00;23.50;;;;;;5014673;28;20615;-90
2023/02/10 09:42:11;;;;;;;21.48;12.32;;;8.10;22.50;;;;;;5017025;28;20289;-91
2023/02/10 09:54:09;;;;;;;16.58;14.43;;;8.90;21.00;;;;;;4995296;28;20223;-87
2023/02/10 09:59:48;;;;;;;20.08;14.90;;;9.00;21.90;;;;;;4968345;28;20277;-87
2023/02/10 11:09:35;;;;;;;20.65;17.15;;;8.60;21.30;;;;;;5021819;28;20170;-91
2023/02/10 11:43:33;;;;;;;23.77;16.15;;;6.40;26.30;;;;;;4993593;28;20231;-92
2023/02/10 11:46:02;;;;;;;26.27;17.08;;;6.20;27.30;;;;;;4976470;28;20225;-90
2023/02/10 11:48:30;;;;;;;24.00;16.23;;;6.20;29.00;;;;;;4981809;28;20188;-89
2023/02/10 11:51:14;;;;;;;25.95;17.38;;;6.30;27.00;;;;;;4995958;28;20200;-93
2023/02/10 11:53:43;;;;;;;25.20;15.93;;;6.40;28.40;;;;;;4984270;28;20204;-93
2023/02/10 11:59:28;;;;;;;26.25;15.63;;;6.40;27.70;;;;;;4976916;28;20211;-92
2023/02/10 12:01:58;;;;;;;21.90;14.82;;;6.40;27.40;;;;;;4993972;28;20259;-91
2023/02/10 12:04:45;;;;;;;22.27;14.88;;;6.30;27.70;;;;;;4985900;28;20235;-90
2023/02/10 12:07:22;;;;;;;25.73;16.33;;;6.30;27.00;;;;;;4987569;28;20197;-93
2023/02/10 12:09:56;;;;;;;22.13;14.75;;;6.30;27.10;;;;;;4996072;28;20254;-87
2023/02/10 12:12:33;;;;;;;23.70;15.70;;;6.30;26.50;;;;;;4986487;28;20202;-85
2023/02/10 12:15:08;;;;;;;28.23;15.20;;;6.30;27.20;;;;;;4991144;28;20195;-87
2023/02/10 12:17:44;;;;;;;21.98;15.00;;;6.20;27.30;;;;;;4987975;28;20198;-87
2023/02/10 12:20:29;;;;;;;23.20;14.30;;;6.30;26.40;;;;;;4986487;28;20206;-87
2023/02/10 12:23:32;;;;;;;21.30;13.70;;;6.20;26.30;;;;;;4992754;28;20199;-86
2023/02/10 12:26:07;;;;;;;18.93;13.30;;;6.20;25.70;;;;;;4962809;28;20231;-87
2023/02/10 12:28:44;;;;;;;22.57;13.63;;;6.20;25.90;;;;;;4962956;28;20193;-85
2023/02/10 12:31:21;;;;;;;21.67;12.40;;;6.10;24.70;;;;;;4966229;28;20204;-87
2023/02/10 12:34:05;;;;;;;20.80;12.03;;;6.00;24.20;;;;;;4967077;28;20553;-88
2023/02/10 12:36:40;;;;;;;23.40;11.80;;;6.00;24.00;;;;;;4961861;28;20205;-88
2023/02/10 12:39:16;;;;;;;17.93;11.73;;;6.10;24.60;;;;;;4968016;28;20204;-89
2023/02/10 12:41:54;;;;;;;20.20;11.67;;;6.20;22.80;;;;;;4969958;28;20257;-91
2023/02/10 12:44:44;;;;;;;16.60;11.73;;;6.40;22.40;;;;;;4961725;28;20205;-86
2023/02/10 12:47:27;;;;;;;20.40;12.20;;;6.40;22.40;;;;;;4964348;28;20271;-86
2023/02/10 12:50:06;;;;;;;21.97;13.23;;;6.40;22.40;;;;;;4966808;28;20285;-86
2023/02/10 12:52:38;;;;;;;18.50;12.63;;;6.40;23.30;;;;;;4971435;28;20675;-85
2023/02/10 12:55:12;;;;;;;23.03;13.60;;;6.40;23.10;;;;;;4967073;28;20229;-87
2023/02/10 12:57:47;;;;;;;22.03;14.77;;;6.40;23.10;;;;;;4962499;28;20600;-86
2023/02/10 13:00:17;;;;;;;22.20;14.10;;;6.10;24.60;;;;;;4971992;28;20192;-90
2023/02/10 13:02:51;;;;;;;22.87;14.40;;;6.00;25.70;;;;;;4960854;28;20200;-85
2023/02/10 13:05:22;;;;;;;20.70;14.03;;;5.80;25.40;;;;;;4967425;28;20761;-84
2023/02/10 13:07:52;;;;;;;21.33;13.68;;;5.80;26.00;;;;;;4966049;28;20197;-86
2023/02/10 13:10:28;;;;;;;23.67;14.15;;;5.90;25.40;;;;;;4969209;28;20747;-86
2023/02/10 13:13:00;;;;;;;22.70;13.50;;;5.90;25.60;;;;;;4968674;28;20642;-89
2023/02/10 13:15:31;;;;;;;22.00;13.93;;;6.10;25.30;;;;;;4958041;28;20289;-86
2023/02/10 13:18:00;;;;;;;23.97;14.73;;;6.20;25.50;;;;;;4967884;28;20208;-87
2023/02/10 13:20:35;;;;;;;19.47;13.23;;;6.10;24.80;;;;;;4964499;28;20204;-87
2023/02/10 13:23:16;;;;;;;21.17;13.00;;;6.00;25.10;;;;;;4963886;28;20559;-87
2023/02/10 13:26:07;;;;;;;21.63;13.67;;;6.00;25.80;;;;;;4964046;28;20231;-88
2023/02/10 13:28:43;;;;;;;23.60;13.67;;;6.00;26.70;;;;;;4964289;28;20831;-88
2023/02/10 13:31:28;;;;;;;23.93;14.07;;;6.20;24.80;;;;;;4974494;28;20198;-90
2023/02/10 13:34:03;;;;;;;21.43;13.43;;;6.10;25.10;;;;;;4968027;28;20205;-87
2023/02/10 13:36:34;;;;;;;20.33;13.57;;;6.10;26.10;;;;;;4962105;28;20200;-87
2023/02/10 13:39:04;;;;;;;22.17;13.70;;;6.20;25.40;;;;;;4964594;28;20201;-86
2023/02/10 13:41:45;;;;;;;20.20;13.07;;;6.20;25.30;;;;;;4965963;28;20240;-86
2023/02/10 13:44:26;;;;;;;21.33;12.90;;;6.20;25.10;;;;;;4969137;28;20227;-88
2023/02/10 13:46:59;;;;;;;22.17;13.47;;;6.10;24.80;;;;;;4968489;28;20208;-86
2023/02/10 13:49:28;;;;;;;18.92;12.57;;;6.00;25.10;;;;;;4977340;28;20256;-86
2023/02/10 13:52:06;;;;;;;21.67;13.27;;;6.10;24.50;;;;;;4967813;28;20197;-87
2023/02/10 13:54:35;;;;;;;20.20;12.87;;;6.00;26.10;;;;;;4975361;28;20203;-85
2023/02/10 13:57:02;;;;;;;21.00;13.43;;;5.90;25.50;;;;;;4975498;28;20213;-85
2023/02/10 13:59:37;;;;;;;21.17;12.40;;;6.00;24.90;;;;;;4961841;28;20209;-85
2023/02/10 14:02:16;;;;;;;18.35;12.32;;;6.00;25.40;;;;;;4972853;28;20523;-86
2023/02/10 14:04:47;;;;;;;21.50;12.97;;;6.10;25.30;;;;;;4980884;28;20193;-87
2023/02/10 14:07:35;;;;;;;21.97;13.20;;;5.90;24.40;;;;;;4975128;28;20712;-86
2023/02/10 14:10:07;;;;;;;18.70;13.03;;;5.80;25.10;;;;;;4976548;28;20211;-86
2023/02/10 14:12:36;;;;;;;23.93;13.90;;;5.70;25.70;;;;;;4973833;28;20197;-87
2023/02/10 14:15:22;;;;;;;20.37;13.57;;;5.80;26.60;;;;;;4976603;28;20212;-86
2023/02/10 14:18:01;;;;;;;20.33;12.57;;;5.80;26.00;;;;;;4976341;28;20573;-89
2023/02/10 14:20:32;;;;;;;20.90;12.80;;;5.70;25.10;;;;;;4971393;28;20207;-87
2023/02/10 14:23:01;;;;;;;22.53;13.57;;;5.70;25.80;;;;;;4970286;28;20211;-87
2023/02/10 14:25:35;;;;;;;20.90;13.10;;;5.60;26.10;;;;;;4978027;28;20224;-86
2023/02/10 14:28:04;;;;;;;19.77;12.10;;;5.70;26.30;;;;;;4977422;28;20204;-86
2023/02/10 14:30:40;;;;;;;21.03;13.07;;;5.70;26.40;;;;;;4968500;28;20201;-86
2023/02/10 14:33:18;;;;;;;21.23;12.82;;;5.80;25.50;;;;;;4971647;28;20208;-85
2023/02/10 14:35:51;;;;;;;24.13;13.20;;;5.80;25.20;;;;;;4972055;28;20266;-86
2023/02/10 14:38:22;;;;;;;23.80;13.17;;;5.80;26.10;;;;;;4976143;28;20654;-87
2023/02/10 14:40:51;;;;;;;17.63;12.27;;;5.70;25.80;;;;;;4979504;28;20201;-87
2023/02/10 14:43:22;;;;;;;22.77;13.30;;;5.80;26.40;;;;;;4963775;28;20237;-85
2023/02/10 14:45:49;;;;;;;17.73;12.70;;;5.80;25.20;;;;;;4975780;28;20600;-86
2023/02/10 14:48:21;;;;;;;20.00;13.13;;;5.80;25.20;;;;;;4969310;28;20645;-86
2023/02/10 14:50:59;;;;;;;20.37;13.00;;;5.90;24.80;;;;;;4973150;28;20201;-91
2023/02/10 14:53:26;;;;;;;19.00;12.90;;;5.70;24.70;;;;;;4968103;28;20205;-86
2023/02/10 14:55:54;;;;;;;21.13;12.90;;;5.60;25.60;;;;;;4961894;28;20212;-88
2023/02/10 14:58:23;;;;;;;19.80;13.07;;;5.50;25.90;;;;;;4971696;28;20223;-86
2023/02/10 15:00:57;;;;;;;20.13;13.47;;;5.50;26.90;;;;;;4971715;28;20209;-88
2023/02/10 15:03:24;;;;;;;20.47;13.27;;;5.40;27.80;;;;;;4976509;28;20199;-86
2023/02/10 15:05:55;;;;;;;22.50;14.03;;;5.40;28.20;;;;;;4963499;28;20323;-87
2023/02/10 15:08:31;;;;;;;19.03;13.13;;;5.30;28.30;;;;;;4968130;28;20211;-86
2023/02/10 15:10:58;;;;;;;19.90;13.57;;;5.40;28.70;;;;;;4964571;28;20192;-92
2023/02/10 15:13:29;;;;;;;20.97;13.27;;;5.30;28.60;;;;;;4964369;28;20201;-86
2023/02/10 15:15:57;;;;;;;19.87;13.90;;;5.30;28.70;;;;;;4968122;28;20211;-84
2023/02/10 15:18:27;;;;;;;22.23;13.77;;;5.20;29.40;;;;;;4974357;28;20211;-86
2023/02/10 15:20:56;;;;;;;20.23;13.87;;;5.10;30.10;;;;;;4964634;28;20316;-86
2023/02/10 15:23:29;;;;;;;20.53;13.53;;;5.10;29.40;;;;;;4969529;28;20217;-86
2023/02/10 15:26:01;;;;;;;19.60;12.97;;;5.10;29.30;;;;;;4964026;28;20226;-84
2023/02/10 15:28:29;;;;;;;23.40;13.80;;;5.00;29.90;;;;;;4966105;28;20193;-85
2023/02/10 15:31:01;;;;;;;20.57;13.93;;;4.90;30.20;;;;;;4968991;28;20201;-84
2023/02/10 15:33:31;;;;;;;22.70;13.97;;;4.90;30.20;;;;;;4967792;28;20314;-86
2023/02/10 15:36:21;;;;;;;23.20;13.57;;;4.90;30.70;;;;;;4963906;28;20199;-87
2023/02/10 15:38:53;;;;;;;21.20;14.27;;;4.90;31.20;;;;;;4969086;28;20200;-84
2023/02/10 15:41:39;;;;;;;23.10;14.20;;;4.80;31.70;;;;;;4966669;28;20305;-83
2023/02/10 15:44:27;;;;;;;23.23;14.30;;;4.80;31.80;;;;;;4968288;28;20196;-83
2023/02/10 15:46:55;;;;;;;23.23;14.03;;;4.80;32.40;;;;;;4966128;28;20229;-84
2023/02/10 15:49:23;;;;;;;22.80;14.90;;;4.70;33.20;;;;;;4966502;28;20211;-88
2023/02/10 15:51:52;;;;;;;22.33;14.13;;;4.60;34.30;;;;;;4985405;28;20200;-92
2023/02/10 15:54:23;;;;;;;25.03;14.80;;;4.50;35.40;;;;;;4988982;28;20189;-91
2023/02/10 15:56:57;;;;;;;22.43;14.90;;;4.50;36.20;;;;;;4992578;28;20260;-90
2023/02/10 15:59:27;;;;;;;22.13;14.10;;;4.40;37.20;;;;;;4966564;28;20197;-90